Aérodrome :







RETROUVEZ-NOUS SUR...

 
LOGIN :

S'inscrire | Disclaimer

   EN    FR    IT 

 









Légende :    VFR   VFR Marginal   IFR   IFR Intensif   IFR Très Intensif
Visi : 
Plafond : 
>= 8 km
>= 3000ft
5 à 8 km
1000 à 3000 ft
1500m à 5 km
500 à 1000 ft
800 à 1500m
200 à 500 ft
< 800m
< 200 ft
Symboles :   Orages  Brouillard  Fortes neiges  Fortes précipitations  Vent > 20 kt






- Altitude de l'aérodrome : 83 ft


KBHB - Hancock County-Bar Harbor

DERNIER METAR :
  • 171556Z AUTO 35015G22KT 320V030 10SM CLR M11/M18 A3033 RMK AO2 PK WND 35028/1527 SNE02B26E38 SLP272 P0000 T11061183 FZRANO

METARs EXPIRÉS :
  • 171456Z AUTO 34013G24KT 8SM -SN CLR M12/M18 A3032 RMK AO2 SNB39 SLP272 P0000 60000 T11171183 51033 FZRANO
  • 171356Z AUTO 33012G19KT 10SM CLR M13/M18 A3030 RMK AO2 PK WND 34026/1317 SLP264 T11281183 FZRANO

TAF KBHB
Valide du 17 à 12h jusqu'au 18 à 12h UTC


171120Z 1712/1812 34019G34KT 6SM BLSN BR FEW250
FM180000 33015G24KT P6SM FEW250



MET'MAP, la Météo Aéronautique d'un coup d'oeil ! - Copyright ORBIFLY Décembre 2007 - Disclaimer

ORBIFLY MET'MAP TEAM :

Programmation & Développement : Alexandra Zaïnal
Sur une idée originale de : Baudouin d'Aumeries
Assistance à la programmation : Marc-Olivier Méhu
Soutien technique & logistique : Manuel Goepfert

Contact : metmap@orbifly.com




SOURCES & CREDITS :

   NOAA